Aérodrome :
LOGIN :

S'inscrire | Disclaimer

   EN    FR    IT 

 










Légende :    VFR   VFR Marginal   IFR   IFR Intensif   IFR Très Intensif
Visi : 
Plafond : 
>= 8 km
>= 3000ft
5 à 8 km
1000 à 3000 ft
1500m à 5 km
500 à 1000 ft
800 à 1500m
200 à 500 ft
< 800m
< 200 ft
Symboles :   Orages  Brouillard  Fortes neiges  Fortes précipitations  Vent > 20 kt
SIGMETs :   Divers  Orages  Givrage  Turbulence  Onde Orograph.  Cendres Volcan.







- Altitude de l'aérodrome : 1202 ft
- Code IATA : IGS


ETSI - Ingolstadt

DERNIER METAR :
  • 231620Z 26010KT 9999 FEW025 BKN050 BKN090 09/05 Q1021 BLU FCST CANCEL

METARs EXPIRÉS :
  • 231520Z 26011KT 9999 FEW022 BKN045 BKN090 09/05 Q1021 BLU BLU
  • 231420Z 28012KT 9999 FEW020 SCT030 BKN050 10/05 Q1021 BLU BLU

TAF AMD TAF ETSI
Valide du 23 à 14h jusqu'au 23 à 23h UTC


231517Z 2314/2323 28010KT 9999 NSW FEW025 BKN045 CANCEL 1620
Pas de NOTAMs connus pour ce terrain.



MET'MAP, la Météo Aéronautique d'un coup d'oeil ! - Copyright ORBIFLY Décembre 2007 - Disclaimer

ORBIFLY MET'MAP TEAM :

Programmation & Développement : Alexandra Zaïnal
Conception & Développement : Baudouin d'Aumeries
Co-Programmation & Développement : Marc-Olivier Méhu
Soutien technique & logistique : Manuel Goepfert

Contact : metmap@orbifly.com




SOURCES & CREDITS :

   NOAA